sensor_id;sensor_type;location;lat;lon;timestamp;P1;durP1;ratioP1;P2;durP2;ratioP2
37527;SDS011;23372;52.050;4.810;2023-12-04T00:00:46;28.30;;;12.97;;
37527;SDS011;23372;52.050;4.810;2023-12-04T00:03:11;28.97;;;11.97;;
37527;SDS011;23372;52.050;4.810;2023-12-04T00:05:37;23.37;;;11.37;;
37527;SDS011;23372;52.050;4.810;2023-12-04T00:08:02;28.63;;;13.03;;
37527;SDS011;23372;52.050;4.810;2023-12-04T00:10:28;25.60;;;12.73;;
37527;SDS011;23372;52.050;4.810;2023-12-04T00:12:54;27.27;;;12.73;;
37527;SDS011;23372;52.050;4.810;2023-12-04T00:15:19;25.43;;;12.13;;
37527;SDS011;23372;52.050;4.810;2023-12-04T00:17:46;26.80;;;12.30;;
37527;SDS011;23372;52.050;4.810;2023-12-04T00:20:12;26.63;;;12.63;;
37527;SDS011;23372;52.050;4.810;2023-12-04T00:22:37;29.17;;;12.77;;
37527;SDS011;23372;52.050;4.810;2023-12-04T00:25:03;24.40;;;12.07;;
37527;SDS011;23372;52.050;4.810;2023-12-04T00:27:30;27.87;;;12.87;;
37527;SDS011;23372;52.050;4.810;2023-12-04T00:29:56;27.67;;;12.33;;
37527;SDS011;23372;52.050;4.810;2023-12-04T00:32:22;25.57;;;11.60;;
37527;SDS011;23372;52.050;4.810;2023-12-04T00:34:47;24.80;;;12.10;;
37527;SDS011;23372;52.050;4.810;2023-12-04T00:37:13;27.53;;;12.63;;
37527;SDS011;23372;52.050;4.810;2023-12-04T00:39:38;25.63;;;12.57;;
37527;SDS011;23372;52.050;4.810;2023-12-04T00:42:04;28.77;;;12.43;;
37527;SDS011;23372;52.050;4.810;2023-12-04T00:44:30;28.13;;;12.97;;
37527;SDS011;23372;52.050;4.810;2023-12-04T00:46:56;24.37;;;12.67;;
37527;SDS011;23372;52.050;4.810;2023-12-04T00:49:22;25.47;;;12.17;;
37527;SDS011;23372;52.050;4.810;2023-12-04T00:51:48;25.53;;;13.10;;
37527;SDS011;23372;52.050;4.810;2023-12-04T00:54:14;28.10;;;11.80;;
37527;SDS011;23372;52.050;4.810;2023-12-04T00:56:39;26.37;;;12.80;;
37527;SDS011;23372;52.050;4.810;2023-12-04T00:59:06;26.60;;;13.30;;
37527;SDS011;23372;52.050;4.810;2023-12-04T01:01:35;25.23;;;11.53;;
37527;SDS011;23372;52.050;4.810;2023-12-04T01:04:03;25.17;;;11.37;;
37527;SDS011;23372;52.050;4.810;2023-12-04T01:06:29;25.77;;;12.13;;
37527;SDS011;23372;52.050;4.810;2023-12-04T01:08:55;24.77;;;11.73;;
37527;SDS011;23372;52.050;4.810;2023-12-04T01:11:20;26.43;;;12.27;;
37527;SDS011;23372;52.050;4.810;2023-12-04T01:13:47;24.10;;;11.47;;
37527;SDS011;23372;52.050;4.810;2023-12-04T01:16:13;26.60;;;11.97;;
37527;SDS011;23372;52.050;4.810;2023-12-04T01:18:40;26.43;;;12.13;;
37527;SDS011;23372;52.050;4.810;2023-12-04T01:21:06;25.43;;;12.13;;
37527;SDS011;23372;52.050;4.810;2023-12-04T01:23:33;22.70;;;12.33;;
37527;SDS011;23372;52.050;4.810;2023-12-04T01:25:59;25.33;;;12.13;;
37527;SDS011;23372;52.050;4.810;2023-12-04T01:28:26;27.50;;;12.30;;
37527;SDS011;23372;52.050;4.810;2023-12-04T01:30:51;25.53;;;11.50;;
37527;SDS011;23372;52.050;4.810;2023-12-04T01:33:17;29.73;;;11.57;;
37527;SDS011;23372;52.050;4.810;2023-12-04T01:35:42;27.43;;;11.90;;
37527;SDS011;23372;52.050;4.810;2023-12-04T01:38:08;23.87;;;11.87;;
37527;SDS011;23372;52.050;4.810;2023-12-04T01:40:33;25.47;;;11.67;;
37527;SDS011;23372;52.050;4.810;2023-12-04T01:42:59;25.90;;;12.13;;
37527;SDS011;23372;52.050;4.810;2023-12-04T01:45:25;25.27;;;11.67;;
37527;SDS011;23372;52.050;4.810;2023-12-04T01:47:50;29.47;;;12.53;;
37527;SDS011;23372;52.050;4.810;2023-12-04T01:50:16;25.47;;;12.90;;
37527;SDS011;23372;52.050;4.810;2023-12-04T01:52:42;25.27;;;11.00;;
37527;SDS011;23372;52.050;4.810;2023-12-04T01:55:08;22.03;;;11.63;;
37527;SDS011;23372;52.050;4.810;2023-12-04T01:57:35;26.17;;;12.03;;
37527;SDS011;23372;52.050;4.810;2023-12-04T02:00:01;24.73;;;11.90;;
37527;SDS011;23372;52.050;4.810;2023-12-04T02:02:27;23.13;;;11.87;;
37527;SDS011;23372;52.050;4.810;2023-12-04T02:04:54;23.57;;;11.63;;
37527;SDS011;23372;52.050;4.810;2023-12-04T02:07:22;25.97;;;12.07;;
37527;SDS011;23372;52.050;4.810;2023-12-04T02:09:48;20.30;;;10.57;;
37527;SDS011;23372;52.050;4.810;2023-12-04T02:12:14;23.70;;;12.43;;
37527;SDS011;23372;52.050;4.810;2023-12-04T02:14:40;24.93;;;11.33;;
37527;SDS011;23372;52.050;4.810;2023-12-04T02:17:06;29.47;;;11.83;;
37527;SDS011;23372;52.050;4.810;2023-12-04T02:19:33;23.30;;;11.23;;
37527;SDS011;23372;52.050;4.810;2023-12-04T02:21:59;20.13;;;9.90;;
37527;SDS011;23372;52.050;4.810;2023-12-04T02:24:25;22.03;;;12.17;;
37527;SDS011;23372;52.050;4.810;2023-12-04T02:27:37;20.63;;;10.67;;
37527;SDS011;23372;52.050;4.810;2023-12-04T02:29:49;21.53;;;10.47;;
37527;SDS011;23372;52.050;4.810;2023-12-04T02:32:28;20.43;;;11.00;;
37527;SDS011;23372;52.050;4.810;2023-12-04T02:34:56;25.73;;;11.73;;
37527;SDS011;23372;52.050;4.810;2023-12-04T02:37:23;25.57;;;11.43;;
37527;SDS011;23372;52.050;4.810;2023-12-04T02:39:51;20.70;;;10.37;;
37527;SDS011;23372;52.050;4.810;2023-12-04T02:42:20;25.07;;;11.57;;
37527;SDS011;23372;52.050;4.810;2023-12-04T02:44:46;24.00;;;11.57;;
37527;SDS011;23372;52.050;4.810;2023-12-04T02:47:11;21.70;;;11.30;;
37527;SDS011;23372;52.050;4.810;2023-12-04T02:49:37;23.23;;;11.57;;
37527;SDS011;23372;52.050;4.810;2023-12-04T02:52:03;24.50;;;10.80;;
37527;SDS011;23372;52.050;4.810;2023-12-04T02:54:28;26.77;;;11.37;;
37527;SDS011;23372;52.050;4.810;2023-12-04T02:56:54;23.40;;;10.90;;
37527;SDS011;23372;52.050;4.810;2023-12-04T02:59:19;23.13;;;10.00;;
37527;SDS011;23372;52.050;4.810;2023-12-04T03:01:45;23.70;;;11.17;;
37527;SDS011;23372;52.050;4.810;2023-12-04T03:04:11;21.10;;;11.10;;
37527;SDS011;23372;52.050;4.810;2023-12-04T03:06:36;21.83;;;10.27;;
37527;SDS011;23372;52.050;4.810;2023-12-04T03:09:02;20.93;;;10.03;;
37527;SDS011;23372;52.050;4.810;2023-12-04T03:11:28;22.87;;;10.83;;
37527;SDS011;23372;52.050;4.810;2023-12-04T03:13:54;21.50;;;10.43;;
37527;SDS011;23372;52.050;4.810;2023-12-04T03:16:20;21.03;;;9.83;;
37527;SDS011;23372;52.050;4.810;2023-12-04T03:18:45;21.20;;;10.67;;
37527;SDS011;23372;52.050;4.810;2023-12-04T03:21:11;20.90;;;10.00;;
37527;SDS011;23372;52.050;4.810;2023-12-04T03:23:37;20.53;;;10.17;;
37527;SDS011;23372;52.050;4.810;2023-12-04T03:26:02;21.07;;;10.13;;
37527;SDS011;23372;52.050;4.810;2023-12-04T03:28:28;21.83;;;11.00;;
37527;SDS011;23372;52.050;4.810;2023-12-04T03:30:54;20.53;;;9.77;;
37527;SDS011;23372;52.050;4.810;2023-12-04T03:33:19;19.20;;;9.30;;
37527;SDS011;23372;52.050;4.810;2023-12-04T03:35:45;21.80;;;9.87;;
37527;SDS011;23372;52.050;4.810;2023-12-04T03:38:11;21.47;;;9.67;;
37527;SDS011;23372;52.050;4.810;2023-12-04T03:40:36;22.50;;;10.40;;
37527;SDS011;23372;52.050;4.810;2023-12-04T03:43:02;20.87;;;9.93;;
37527;SDS011;23372;52.050;4.810;2023-12-04T03:45:27;19.90;;;10.63;;
37527;SDS011;23372;52.050;4.810;2023-12-04T03:47:53;19.73;;;10.27;;
37527;SDS011;23372;52.050;4.810;2023-12-04T03:50:19;19.73;;;9.63;;
37527;SDS011;23372;52.050;4.810;2023-12-04T03:52:44;21.03;;;9.93;;
37527;SDS011;23372;52.050;4.810;2023-12-04T03:55:10;21.20;;;10.60;;
37527;SDS011;23372;52.050;4.810;2023-12-04T03:57:36;18.07;;;9.93;;
37527;SDS011;23372;52.050;4.810;2023-12-04T04:00:01;18.17;;;9.30;;
37527;SDS011;23372;52.050;4.810;2023-12-04T04:02:29;22.73;;;9.57;;
37527;SDS011;23372;52.050;4.810;2023-12-04T04:04:55;19.13;;;9.60;;
37527;SDS011;23372;52.050;4.810;2023-12-04T04:07:20;19.27;;;9.97;;
37527;SDS011;23372;52.050;4.810;2023-12-04T04:09:46;17.10;;;9.43;;
37527;SDS011;23372;52.050;4.810;2023-12-04T04:12:12;19.80;;;9.70;;
37527;SDS011;23372;52.050;4.810;2023-12-04T04:14:37;17.90;;;8.77;;
37527;SDS011;23372;52.050;4.810;2023-12-04T04:17:03;24.40;;;10.23;;
37527;SDS011;23372;52.050;4.810;2023-12-04T04:19:29;17.60;;;8.93;;
37527;SDS011;23372;52.050;4.810;2023-12-04T04:21:54;18.70;;;8.93;;
37527;SDS011;23372;52.050;4.810;2023-12-04T04:24:20;18.07;;;9.10;;
37527;SDS011;23372;52.050;4.810;2023-12-04T04:26:45;20.00;;;9.93;;
37527;SDS011;23372;52.050;4.810;2023-12-04T04:29:11;18.60;;;9.67;;
37527;SDS011;23372;52.050;4.810;2023-12-04T04:31:36;17.93;;;8.73;;
37527;SDS011;23372;52.050;4.810;2023-12-04T04:34:02;16.97;;;8.93;;
37527;SDS011;23372;52.050;4.810;2023-12-04T04:36:28;15.77;;;8.93;;
37527;SDS011;23372;52.050;4.810;2023-12-04T04:38:54;18.70;;;9.33;;
37527;SDS011;23372;52.050;4.810;2023-12-04T04:41:19;20.50;;;9.53;;
37527;SDS011;23372;52.050;4.810;2023-12-04T04:43:45;17.90;;;9.37;;
37527;SDS011;23372;52.050;4.810;2023-12-04T04:46:11;18.80;;;9.50;;
37527;SDS011;23372;52.050;4.810;2023-12-04T04:48:36;17.67;;;9.80;;
37527;SDS011;23372;52.050;4.810;2023-12-04T04:51:02;19.87;;;9.33;;
37527;SDS011;23372;52.050;4.810;2023-12-04T04:53:28;18.23;;;9.37;;
37527;SDS011;23372;52.050;4.810;2023-12-04T04:55:53;14.60;;;7.83;;
37527;SDS011;23372;52.050;4.810;2023-12-04T04:58:19;17.43;;;8.20;;
37527;SDS011;23372;52.050;4.810;2023-12-04T05:00:45;17.83;;;8.63;;
37527;SDS011;23372;52.050;4.810;2023-12-04T05:03:12;15.33;;;8.43;;
37527;SDS011;23372;52.050;4.810;2023-12-04T05:05:37;15.37;;;8.60;;
37527;SDS011;23372;52.050;4.810;2023-12-04T05:08:03;16.07;;;9.20;;
37527;SDS011;23372;52.050;4.810;2023-12-04T05:10:28;17.87;;;9.40;;
37527;SDS011;23372;52.050;4.810;2023-12-04T05:12:54;18.67;;;9.80;;
37527;SDS011;23372;52.050;4.810;2023-12-04T05:15:20;15.50;;;7.30;;
37527;SDS011;23372;52.050;4.810;2023-12-04T05:17:46;15.43;;;8.40;;
37527;SDS011;23372;52.050;4.810;2023-12-04T05:20:12;14.93;;;8.07;;
37527;SDS011;23372;52.050;4.810;2023-12-04T05:22:37;17.07;;;9.10;;
37527;SDS011;23372;52.050;4.810;2023-12-04T05:25:03;14.97;;;8.27;;
37527;SDS011;23372;52.050;4.810;2023-12-04T05:27:29;15.20;;;8.47;;
37527;SDS011;23372;52.050;4.810;2023-12-04T05:29:55;16.53;;;8.13;;
37527;SDS011;23372;52.050;4.810;2023-12-04T05:32:20;14.57;;;7.50;;
37527;SDS011;23372;52.050;4.810;2023-12-04T05:34:46;15.33;;;8.17;;
37527;SDS011;23372;52.050;4.810;2023-12-04T05:37:11;14.13;;;7.70;;
37527;SDS011;23372;52.050;4.810;2023-12-04T05:39:37;18.60;;;8.77;;
37527;SDS011;23372;52.050;4.810;2023-12-04T05:42:02;15.53;;;8.20;;
37527;SDS011;23372;52.050;4.810;2023-12-04T05:44:28;15.73;;;8.97;;
37527;SDS011;23372;52.050;4.810;2023-12-04T05:46:54;16.60;;;8.33;;
37527;SDS011;23372;52.050;4.810;2023-12-04T05:49:19;15.87;;;8.23;;
37527;SDS011;23372;52.050;4.810;2023-12-04T05:51:45;15.60;;;7.97;;
37527;SDS011;23372;52.050;4.810;2023-12-04T05:54:10;15.00;;;8.60;;
37527;SDS011;23372;52.050;4.810;2023-12-04T05:56:36;19.83;;;9.83;;
37527;SDS011;23372;52.050;4.810;2023-12-04T05:59:02;19.03;;;8.67;;
37527;SDS011;23372;52.050;4.810;2023-12-04T06:01:28;17.37;;;8.93;;
37527;SDS011;23372;52.050;4.810;2023-12-04T06:03:53;16.90;;;8.77;;
37527;SDS011;23372;52.050;4.810;2023-12-04T06:06:19;18.50;;;10.53;;
37527;SDS011;23372;52.050;4.810;2023-12-04T06:08:44;17.93;;;8.97;;
37527;SDS011;23372;52.050;4.810;2023-12-04T06:11:10;18.10;;;8.43;;
37527;SDS011;23372;52.050;4.810;2023-12-04T06:13:35;17.47;;;8.93;;
37527;SDS011;23372;52.050;4.810;2023-12-04T06:16:01;17.70;;;9.50;;
37527;SDS011;23372;52.050;4.810;2023-12-04T06:18:27;19.47;;;9.70;;
37527;SDS011;23372;52.050;4.810;2023-12-04T06:20:52;16.97;;;9.17;;
37527;SDS011;23372;52.050;4.810;2023-12-04T06:23:18;21.23;;;10.33;;
37527;SDS011;23372;52.050;4.810;2023-12-04T06:25:44;17.03;;;8.13;;
37527;SDS011;23372;52.050;4.810;2023-12-04T06:28:10;15.40;;;8.63;;
37527;SDS011;23372;52.050;4.810;2023-12-04T06:30:35;19.73;;;9.63;;
37527;SDS011;23372;52.050;4.810;2023-12-04T06:33:01;21.47;;;10.27;;
37527;SDS011;23372;52.050;4.810;2023-12-04T06:35:27;17.23;;;9.33;;
37527;SDS011;23372;52.050;4.810;2023-12-04T06:37:53;19.13;;;9.80;;
37527;SDS011;23372;52.050;4.810;2023-12-04T06:40:20;18.33;;;8.97;;
37527;SDS011;23372;52.050;4.810;2023-12-04T06:42:46;17.23;;;9.17;;
37527;SDS011;23372;52.050;4.810;2023-12-04T06:45:12;17.23;;;9.03;;
37527;SDS011;23372;52.050;4.810;2023-12-04T06:47:39;16.47;;;8.60;;
37527;SDS011;23372;52.050;4.810;2023-12-04T06:50:07;17.63;;;9.17;;
37527;SDS011;23372;52.050;4.810;2023-12-04T06:52:33;19.03;;;9.13;;
37527;SDS011;23372;52.050;4.810;2023-12-04T06:54:58;16.77;;;8.90;;
37527;SDS011;23372;52.050;4.810;2023-12-04T06:57:24;14.97;;;7.97;;
37527;SDS011;23372;52.050;4.810;2023-12-04T06:59:49;16.50;;;8.80;;
37527;SDS011;23372;52.050;4.810;2023-12-04T07:02:15;14.83;;;7.90;;
37527;SDS011;23372;52.050;4.810;2023-12-04T07:04:41;15.23;;;8.43;;
37527;SDS011;23372;52.050;4.810;2023-12-04T07:07:06;12.87;;;7.47;;
37527;SDS011;23372;52.050;4.810;2023-12-04T07:09:32;18.00;;;9.13;;
37527;SDS011;23372;52.050;4.810;2023-12-04T07:11:58;15.03;;;8.07;;
37527;SDS011;23372;52.050;4.810;2023-12-04T07:14:24;17.20;;;9.10;;
37527;SDS011;23372;52.050;4.810;2023-12-04T07:16:50;13.83;;;7.90;;
37527;SDS011;23372;52.050;4.810;2023-12-04T07:19:16;13.43;;;7.87;;
37527;SDS011;23372;52.050;4.810;2023-12-04T07:21:41;14.47;;;8.93;;
37527;SDS011;23372;52.050;4.810;2023-12-04T07:24:07;16.43;;;7.10;;
37527;SDS011;23372;52.050;4.810;2023-12-04T07:26:36;13.83;;;8.30;;
37527;SDS011;23372;52.050;4.810;2023-12-04T07:29:02;15.23;;;8.47;;
37527;SDS011;23372;52.050;4.810;2023-12-04T07:31:28;16.77;;;7.83;;
37527;SDS011;23372;52.050;4.810;2023-12-04T07:33:54;17.23;;;9.07;;
37527;SDS011;23372;52.050;4.810;2023-12-04T07:36:20;15.37;;;7.57;;
37527;SDS011;23372;52.050;4.810;2023-12-04T07:38:45;14.60;;;7.77;;
37527;SDS011;23372;52.050;4.810;2023-12-04T07:41:11;16.47;;;8.87;;
37527;SDS011;23372;52.050;4.810;2023-12-04T07:43:36;13.83;;;7.93;;
37527;SDS011;23372;52.050;4.810;2023-12-04T07:46:02;15.73;;;8.73;;
37527;SDS011;23372;52.050;4.810;2023-12-04T07:48:28;18.17;;;9.37;;
37527;SDS011;23372;52.050;4.810;2023-12-04T07:50:55;14.47;;;8.17;;
37527;SDS011;23372;52.050;4.810;2023-12-04T07:53:21;15.30;;;8.17;;
37527;SDS011;23372;52.050;4.810;2023-12-04T07:55:47;15.70;;;7.80;;
37527;SDS011;23372;52.050;4.810;2023-12-04T07:58:14;17.10;;;9.37;;
37527;SDS011;23372;52.050;4.810;2023-12-04T08:00:40;16.63;;;8.00;;
37527;SDS011;23372;52.050;4.810;2023-12-04T08:03:06;15.83;;;9.83;;
37527;SDS011;23372;52.050;4.810;2023-12-04T08:05:32;17.00;;;8.83;;
37527;SDS011;23372;52.050;4.810;2023-12-04T08:07:58;13.63;;;7.97;;
37527;SDS011;23372;52.050;4.810;2023-12-04T08:10:24;14.80;;;7.93;;
37527;SDS011;23372;52.050;4.810;2023-12-04T08:12:49;19.17;;;8.80;;
37527;SDS011;23372;52.050;4.810;2023-12-04T08:15:15;16.87;;;9.47;;
37527;SDS011;23372;52.050;4.810;2023-12-04T08:17:40;14.37;;;8.53;;
37527;SDS011;23372;52.050;4.810;2023-12-04T08:20:06;14.80;;;8.70;;
37527;SDS011;23372;52.050;4.810;2023-12-04T08:22:32;16.60;;;9.13;;
37527;SDS011;23372;52.050;4.810;2023-12-04T08:24:58;18.80;;;9.17;;
37527;SDS011;23372;52.050;4.810;2023-12-04T08:27:24;13.97;;;8.00;;
37527;SDS011;23372;52.050;4.810;2023-12-04T08:29:50;15.37;;;9.07;;
37527;SDS011;23372;52.050;4.810;2023-12-04T08:32:15;16.97;;;8.30;;
37527;SDS011;23372;52.050;4.810;2023-12-04T08:34:41;21.77;;;8.87;;
37527;SDS011;23372;52.050;4.810;2023-12-04T08:37:06;15.63;;;8.53;;
37527;SDS011;23372;52.050;4.810;2023-12-04T08:39:32;13.27;;;7.50;;
37527;SDS011;23372;52.050;4.810;2023-12-04T08:41:57;14.60;;;8.50;;
37527;SDS011;23372;52.050;4.810;2023-12-04T08:44:23;18.60;;;8.43;;
37527;SDS011;23372;52.050;4.810;2023-12-04T08:46:49;12.60;;;7.70;;
37527;SDS011;23372;52.050;4.810;2023-12-04T08:49:15;14.77;;;8.27;;
37527;SDS011;23372;52.050;4.810;2023-12-04T08:51:41;11.83;;;7.63;;
37527;SDS011;23372;52.050;4.810;2023-12-04T08:54:06;14.43;;;7.67;;
37527;SDS011;23372;52.050;4.810;2023-12-04T08:56:32;12.50;;;7.07;;
37527;SDS011;23372;52.050;4.810;2023-12-04T08:58:58;14.00;;;7.60;;
37527;SDS011;23372;52.050;4.810;2023-12-04T09:01:23;13.30;;;7.50;;
37527;SDS011;23372;52.050;4.810;2023-12-04T09:03:49;13.07;;;6.43;;
37527;SDS011;23372;52.050;4.810;2023-12-04T09:06:16;13.90;;;6.70;;
37527;SDS011;23372;52.050;4.810;2023-12-04T09:08:42;13.67;;;6.90;;
37527;SDS011;23372;52.050;4.810;2023-12-04T09:11:08;11.33;;;6.70;;
37527;SDS011;23372;52.050;4.810;2023-12-04T09:13:33;11.43;;;6.63;;
37527;SDS011;23372;52.050;4.810;2023-12-04T09:15:59;10.93;;;6.50;;
37527;SDS011;23372;52.050;4.810;2023-12-04T09:18:25;11.40;;;6.97;;
37527;SDS011;23372;52.050;4.810;2023-12-04T09:20:50;11.27;;;6.23;;
37527;SDS011;23372;52.050;4.810;2023-12-04T09:23:16;13.47;;;7.00;;
37527;SDS011;23372;52.050;4.810;2023-12-04T09:25:42;10.07;;;5.67;;
37527;SDS011;23372;52.050;4.810;2023-12-04T09:28:07;10.37;;;6.00;;
37527;SDS011;23372;52.050;4.810;2023-12-04T09:30:33;10.20;;;6.20;;
37527;SDS011;23372;52.050;4.810;2023-12-04T09:33:02;12.00;;;6.90;;
37527;SDS011;23372;52.050;4.810;2023-12-04T09:35:27;10.50;;;6.03;;
37527;SDS011;23372;52.050;4.810;2023-12-04T09:37:53;8.00;;;5.43;;
37527;SDS011;23372;52.050;4.810;2023-12-04T09:40:19;13.10;;;6.60;;
37527;SDS011;23372;52.050;4.810;2023-12-04T09:42:44;11.73;;;6.10;;
37527;SDS011;23372;52.050;4.810;2023-12-04T09:45:10;9.27;;;5.90;;
37527;SDS011;23372;52.050;4.810;2023-12-04T09:47:38;11.30;;;6.43;;
37527;SDS011;23372;52.050;4.810;2023-12-04T09:50:04;10.53;;;6.00;;
37527;SDS011;23372;52.050;4.810;2023-12-04T09:52:30;10.27;;;5.83;;
37527;SDS011;23372;52.050;4.810;2023-12-04T09:54:56;11.30;;;6.03;;
37527;SDS011;23372;52.050;4.810;2023-12-04T09:57:22;10.37;;;6.47;;
37527;SDS011;23372;52.050;4.810;2023-12-04T09:59:49;10.43;;;6.43;;
37527;SDS011;23372;52.050;4.810;2023-12-04T10:02:17;9.17;;;5.83;;
37527;SDS011;23372;52.050;4.810;2023-12-04T10:04:42;9.27;;;5.70;;
37527;SDS011;23372;52.050;4.810;2023-12-04T10:07:09;10.17;;;4.90;;
37527;SDS011;23372;52.050;4.810;2023-12-04T10:09:34;11.27;;;5.73;;
37527;SDS011;23372;52.050;4.810;2023-12-04T10:12:00;8.70;;;5.40;;
37527;SDS011;23372;52.050;4.810;2023-12-04T10:14:26;10.17;;;5.87;;
37527;SDS011;23372;52.050;4.810;2023-12-04T10:16:51;10.10;;;5.63;;
37527;SDS011;23372;52.050;4.810;2023-12-04T10:19:24;8.93;;;5.47;;
37527;SDS011;23372;52.050;4.810;2023-12-04T10:21:52;10.80;;;6.07;;
37527;SDS011;23372;52.050;4.810;2023-12-04T10:24:32;13.57;;;6.07;;
37527;SDS011;23372;52.050;4.810;2023-12-04T10:27:02;11.77;;;5.97;;
37527;SDS011;23372;52.050;4.810;2023-12-04T10:29:43;9.07;;;5.73;;
37527;SDS011;23372;52.050;4.810;2023-12-04T10:32:13;11.07;;;5.97;;
37527;SDS011;23372;52.050;4.810;2023-12-04T10:34:42;9.63;;;6.07;;
37527;SDS011;23372;52.050;4.810;2023-12-04T10:37:08;10.47;;;6.20;;
37527;SDS011;23372;52.050;4.810;2023-12-04T10:39:45;10.93;;;6.60;;
37527;SDS011;23372;52.050;4.810;2023-12-04T10:42:12;9.20;;;5.37;;
37527;SDS011;23372;52.050;4.810;2023-12-04T10:44:52;12.53;;;6.77;;
37527;SDS011;23372;52.050;4.810;2023-12-04T10:47:21;10.40;;;6.00;;
37527;SDS011;23372;52.050;4.810;2023-12-04T10:49:48;10.67;;;5.70;;
37527;SDS011;23372;52.050;4.810;2023-12-04T10:52:14;11.30;;;6.23;;
37527;SDS011;23372;52.050;4.810;2023-12-04T10:54:41;11.30;;;5.97;;
37527;SDS011;23372;52.050;4.810;2023-12-04T10:57:06;9.50;;;5.87;;
37527;SDS011;23372;52.050;4.810;2023-12-04T10:59:35;9.63;;;6.20;;
37527;SDS011;23372;52.050;4.810;2023-12-04T11:02:05;10.60;;;6.00;;
37527;SDS011;23372;52.050;4.810;2023-12-04T11:04:33;10.03;;;6.00;;
37527;SDS011;23372;52.050;4.810;2023-12-04T11:07:02;10.87;;;5.63;;
37527;SDS011;23372;52.050;4.810;2023-12-04T11:09:31;9.73;;;5.67;;
37527;SDS011;23372;52.050;4.810;2023-12-04T11:12:02;11.97;;;5.80;;
37527;SDS011;23372;52.050;4.810;2023-12-04T11:14:39;9.50;;;5.63;;
37527;SDS011;23372;52.050;4.810;2023-12-04T11:17:10;9.13;;;5.50;;
37527;SDS011;23372;52.050;4.810;2023-12-04T11:19:47;10.03;;;5.77;;
37527;SDS011;23372;52.050;4.810;2023-12-04T11:22:20;11.70;;;6.00;;
37527;SDS011;23372;52.050;4.810;2023-12-04T11:24:47;10.73;;;6.20;;
37527;SDS011;23372;52.050;4.810;2023-12-04T11:27:16;9.10;;;6.20;;
37527;SDS011;23372;52.050;4.810;2023-12-04T11:29:43;10.10;;;6.20;;
37527;SDS011;23372;52.050;4.810;2023-12-04T11:32:16;12.33;;;5.97;;
37527;SDS011;23372;52.050;4.810;2023-12-04T11:35:17;10.90;;;6.43;;
37527;SDS011;23372;52.050;4.810;2023-12-04T11:37:38;8.27;;;5.70;;
37527;SDS011;23372;52.050;4.810;2023-12-04T11:40:05;10.90;;;6.40;;
37527;SDS011;23372;52.050;4.810;2023-12-04T11:42:32;11.43;;;6.40;;
37527;SDS011;23372;52.050;4.810;2023-12-04T11:44:58;12.83;;;6.67;;
37527;SDS011;23372;52.050;4.810;2023-12-04T11:47:24;12.10;;;6.80;;
37527;SDS011;23372;52.050;4.810;2023-12-04T11:49:49;10.77;;;6.57;;
37527;SDS011;23372;52.050;4.810;2023-12-04T11:52:15;11.97;;;6.77;;
37527;SDS011;23372;52.050;4.810;2023-12-04T11:57:47;11.93;;;6.43;;
37527;SDS011;23372;52.050;4.810;2023-12-04T12:02:50;10.97;;;6.27;;
37527;SDS011;23372;52.050;4.810;2023-12-04T12:05:27;11.27;;;7.27;;
37527;SDS011;23372;52.050;4.810;2023-12-04T12:07:53;15.57;;;6.83;;
37527;SDS011;23372;52.050;4.810;2023-12-04T12:10:19;10.80;;;6.93;;
37527;SDS011;23372;52.050;4.810;2023-12-04T12:12:45;11.63;;;6.20;;
37527;SDS011;23372;52.050;4.810;2023-12-04T12:15:12;10.30;;;6.80;;
37527;SDS011;23372;52.050;4.810;2023-12-04T12:17:38;10.00;;;6.07;;
37527;SDS011;23372;52.050;4.810;2023-12-04T12:20:06;11.27;;;6.67;;
37527;SDS011;23372;52.050;4.810;2023-12-04T12:22:33;12.40;;;7.03;;
37527;SDS011;23372;52.050;4.810;2023-12-04T12:24:59;17.37;;;7.50;;
37527;SDS011;23372;52.050;4.810;2023-12-04T12:27:25;12.23;;;7.47;;
37527;SDS011;23372;52.050;4.810;2023-12-04T12:29:51;12.23;;;7.53;;
37527;SDS011;23372;52.050;4.810;2023-12-04T13:02:45;16.63;;;9.23;;
37527;SDS011;23372;52.050;4.810;2023-12-04T13:05:10;16.13;;;9.10;;
37527;SDS011;23372;52.050;4.810;2023-12-04T13:07:36;13.63;;;8.53;;
37527;SDS011;23372;52.050;4.810;2023-12-04T13:10:02;16.80;;;9.90;;
37527;SDS011;23372;52.050;4.810;2023-12-04T13:12:30;14.67;;;9.57;;
37527;SDS011;23372;52.050;4.810;2023-12-04T13:14:55;18.80;;;9.70;;
37527;SDS011;23372;52.050;4.810;2023-12-04T13:17:21;18.23;;;9.10;;
37527;SDS011;23372;52.050;4.810;2023-12-04T13:19:47;15.67;;;9.47;;
37527;SDS011;23372;52.050;4.810;2023-12-04T13:22:12;18.27;;;9.70;;
37527;SDS011;23372;52.050;4.810;2023-12-04T13:24:38;15.30;;;9.67;;
37527;SDS011;23372;52.050;4.810;2023-12-04T13:27:03;20.40;;;10.53;;
37527;SDS011;23372;52.050;4.810;2023-12-04T13:29:29;18.97;;;10.63;;
37527;SDS011;23372;52.050;4.810;2023-12-04T13:31:54;14.97;;;8.70;;
37527;SDS011;23372;52.050;4.810;2023-12-04T13:34:20;22.43;;;11.47;;
37527;SDS011;23372;52.050;4.810;2023-12-04T13:36:45;17.97;;;10.27;;
37527;SDS011;23372;52.050;4.810;2023-12-04T13:39:11;17.83;;;10.77;;
37527;SDS011;23372;52.050;4.810;2023-12-04T13:41:47;17.17;;;9.63;;
37527;SDS011;23372;52.050;4.810;2023-12-04T13:44:31;16.70;;;9.90;;
37527;SDS011;23372;52.050;4.810;2023-12-04T13:46:58;18.23;;;10.63;;
37527;SDS011;23372;52.050;4.810;2023-12-04T13:49:23;17.00;;;10.87;;
37527;SDS011;23372;52.050;4.810;2023-12-04T13:51:49;19.63;;;11.20;;
37527;SDS011;23372;52.050;4.810;2023-12-04T13:54:15;17.33;;;10.30;;
37527;SDS011;23372;52.050;4.810;2023-12-04T13:57:01;17.33;;;10.47;;
37527;SDS011;23372;52.050;4.810;2023-12-04T13:59:28;15.80;;;10.07;;
37527;SDS011;23372;52.050;4.810;2023-12-04T14:01:56;16.97;;;10.63;;
37527;SDS011;23372;52.050;4.810;2023-12-04T14:04:25;16.43;;;9.93;;
37527;SDS011;23372;52.050;4.810;2023-12-04T14:06:50;17.40;;;10.80;;
37527;SDS011;23372;52.050;4.810;2023-12-04T14:09:16;20.10;;;11.03;;
37527;SDS011;23372;52.050;4.810;2023-12-04T14:11:42;18.07;;;10.27;;
37527;SDS011;23372;52.050;4.810;2023-12-04T14:14:11;18.80;;;10.47;;
37527;SDS011;23372;52.050;4.810;2023-12-04T14:16:40;16.67;;;10.13;;
37527;SDS011;23372;52.050;4.810;2023-12-04T14:19:07;15.07;;;9.73;;
37527;SDS011;23372;52.050;4.810;2023-12-04T14:21:32;17.87;;;10.30;;
37527;SDS011;23372;52.050;4.810;2023-12-04T14:23:58;17.20;;;10.57;;
37527;SDS011;23372;52.050;4.810;2023-12-04T14:26:24;20.97;;;10.33;;
37527;SDS011;23372;52.050;4.810;2023-12-04T14:28:49;18.83;;;10.37;;
37527;SDS011;23372;52.050;4.810;2023-12-04T14:31:15;14.63;;;9.00;;
37527;SDS011;23372;52.050;4.810;2023-12-04T14:33:40;19.10;;;10.60;;
37527;SDS011;23372;52.050;4.810;2023-12-04T14:36:06;16.67;;;9.73;;
37527;SDS011;23372;52.050;4.810;2023-12-04T14:38:32;17.47;;;10.23;;
37527;SDS011;23372;52.050;4.810;2023-12-04T14:40:58;18.67;;;10.30;;
37527;SDS011;23372;52.050;4.810;2023-12-04T14:43:24;19.20;;;11.53;;
37527;SDS011;23372;52.050;4.810;2023-12-04T14:45:49;18.50;;;10.17;;
37527;SDS011;23372;52.050;4.810;2023-12-04T14:48:15;18.13;;;10.43;;
37527;SDS011;23372;52.050;4.810;2023-12-04T14:50:41;16.90;;;10.20;;
37527;SDS011;23372;52.050;4.810;2023-12-04T14:53:06;18.40;;;11.17;;
37527;SDS011;23372;52.050;4.810;2023-12-04T14:55:51;16.90;;;10.33;;
37527;SDS011;23372;52.050;4.810;2023-12-04T14:58:36;18.40;;;10.63;;
37527;SDS011;23372;52.050;4.810;2023-12-04T15:01:21;19.50;;;11.07;;
37527;SDS011;23372;52.050;4.810;2023-12-04T15:03:56;17.03;;;10.57;;